• Join FlightAware (Why Join?)
  • Login
  • US Flag 
02:03PM EDT


 

Airport Tracker/Info


-or-


 

Live Flight TrackerFlight Track Log ✈ UCA4838 ✈ 03-May-2013 ✈ KALB - KEWR

Flight Track Log - Related Links

Times and Time Zones

All times are in EDT time to prevent confusion due to time zone crossing. See the UCA4838 flight status page for this flight to view local times or setup timezone preferences in your user account.

Time Position Orientation Groundspeed Altitude Reporting Facility
EDT Latitude Longitude Course Direction KTS MPH feet Rate Location/Type
11:36AM 42.7361 -73.8083 176° South 120 138 1,100  Level Boston Center
11:37AM 42.6944 -73.8044 176° South 163 188 2,600 1,080 Climbing Boston Center
11:39AM 42.6403 -73.8089 183° South 193 222 3,500 1,260 Climbing Boston Center
11:40AM 42.6022 -73.8503 219° Southwest 185 213 5,300 1,200 Climbing Boston Center
11:41AM 42.5475 -73.8969 212° Southwest 213 245 6,000 840 Climbing Boston Center
11:42AM 42.4925 -73.9464 214° Southwest 247 284 7,100 1,080 Climbing Boston Center
11:43AM 42.4439 -73.9903 214° Southwest 213 245 8,300 1,080 Climbing Boston Center
11:44AM 42.3828 -74.0422 212° Southwest 246 283 9,600 660 Climbing Boston Center
11:45AM 42.3217 -74.0997 215° Southwest 251 289 9,900 120 Climbing Boston Center
11:46AM 42.2603 -74.1597 216° Southwest 267 307 9,900  Level Boston Center
11:47AM 42.1992 -74.2086 211° Southwest 272 313 9,900  Level Boston Center
11:48AM 42.1336 -74.2569 209° Southwest 272 313 9,900  Level Boston Center
11:49AM 42.0683 -74.3000 206° Southwest 272 313 9,900 -60 Level Boston Center
11:50AM 41.9989 -74.3397 203° Southwest 266 306 9,800 -300 Descending Boston Center
11:51AM 41.9294 -74.3767 202° Southwest 266 306 9,300 -600 Descending Boston Center
11:52AM 41.8600 -74.4192 205° Southwest 279 321 8,600 -600 Descending Boston Center
11:53AM 41.7906 -74.4589 203° Southwest 279 321 8,100 -600 Descending Boston Center
11:54AM 41.7211 -74.4956 202° Southwest 279 321 7,500 -600 Descending Boston Center
11:55AM 41.6517 -74.5239 197° South 274 315 7,000 -720 Descending Boston Center
11:56AM 41.5783 -74.5436 191° South 263 303 6,100 -540 Descending Boston Center
11:57AM 41.5156 -74.5639 194° South 263 303 6,000 -60 Descending Boston Center
11:59AM 41.3667 -74.6167 195° South 248 285 6,000 -180 Level New York TRACON
12:00PM 41.3000 -74.6167 180° South 248 285 5,600 -420 Descending New York TRACON
12:01PM 41.2333 -74.6000 169° South 250 288 5,200 -540 Descending New York TRACON
12:02PM 41.1667 -74.5833 169° South 235 270 4,600 -780 Descending New York TRACON
12:03PM 41.1167 -74.5667 166° South 228 262 3,800 -840 Descending New York TRACON
12:04PM 41.0500 -74.5500 169° South 227 261 3,100 -420 Descending New York TRACON
12:05PM 41.0000 -74.5333 166° South 207 238 3,000 -60 Descending New York TRACON
12:06PM 40.9333 -74.5333 180° South 209 241 3,000  Level New York TRACON
12:07PM 40.8833 -74.5500 194° South 217 250 3,000  Level New York TRACON
12:08PM 40.8167 -74.5500 180° South 202 232 3,000  Level New York TRACON
12:09PM 40.7667 -74.5500 180° South 186 214 3,000  Level New York TRACON
12:10PM 40.7167 -74.5333 166° South 191 220 3,000 -540 Level New York TRACON
12:11PM 40.7000 -74.4833 114° Southeast 167 192 2,000 -540 Descending New York TRACON
12:12PM 40.7167 -74.4333 66° East 170 196 2,000  Level New York TRACON
12:13PM 40.7167 -74.3667 90° East 171 197 2,000  Level New York TRACON
12:14PM 40.7167 -74.3000 90° East 180 207 2,000 -420 Level New York TRACON
12:15PM 40.7000 -74.2500 114° Southeast 134 154 1,200 -780 Descending New York TRACON
12:16PM 40.7000 -74.2167 90° East 112 129 500 -720 Descending New York TRACON